KFBR

Fort Bridger Airport

Fort Bridger, Wyoming, USA
METAR KFBR 220955Z AUTO 04005KT 10SM BKN120 09/04 A3006 RMK AO2 T00850035
Observed Flight Rules
May-22 @ 09:55 UTC (19 minutes ago) Visual Flight Rules
Wind Visibility Clouds
40° at 5 knots 10 miles
  • Broken at 12,000' AGL
Temperatures Readings
Current 9°C / 48°F
Dewpoint 4°C / 39°F
Humidity 71%
Altimeter 30.06" Hg
Pressure 1018 hPa
Elevation 2144
METAR KFBR 220955Z AUTO 04005KT 10SM BKN120 09/04 A3006 RMK AO2 T00850035
Observed Flight Rules
May-22 @ 09:55 UTC
(19 minutes ago)
VFR
Wind Visibility
40° at 5 knots 10 miles
Clouds
  • Broken at 12,000' AGL
Temperature Dewpoint
9°C / 48°F 4°C / 39°F
Humidity Altimeter Pressure
71% 30.06" Hg 1018 hPa